createdAt,value
2023-03-25T00:01:09.118Z,7.82
2023-03-25T00:03:41.846Z,11.75
2023-03-25T00:06:10.728Z,8.70
2023-03-25T00:08:37.686Z,10.10
2023-03-25T00:11:05.220Z,10.70
2023-03-25T00:13:31.800Z,7.45
2023-03-25T00:15:58.935Z,10.77
2023-03-25T00:18:29.224Z,9.75
2023-03-25T00:20:56.393Z,8.75
2023-03-25T00:23:23.152Z,6.05
2023-03-25T00:25:50.160Z,11.85
2023-03-25T00:28:17.016Z,5.50
2023-03-25T00:30:45.421Z,9.43
2023-03-25T00:33:13.292Z,9.68
2023-03-25T00:35:44.743Z,8.95
2023-03-25T00:38:12.134Z,9.82
2023-03-25T00:40:38.637Z,9.40
2023-03-25T00:43:06.507Z,9.85
2023-03-25T00:45:34.006Z,7.32
2023-03-25T00:48:00.722Z,3.67
2023-03-25T00:50:27.325Z,9.35
2023-03-25T00:52:54.555Z,5.88
2023-03-25T00:55:21.024Z,8.13
2023-03-25T00:57:48.095Z,7.50
2023-03-25T01:00:17.664Z,4.47
2023-03-25T01:02:45.651Z,5.60
2023-03-25T01:05:12.507Z,5.43
2023-03-25T01:07:42.285Z,5.65
2023-03-25T01:10:09.934Z,5.97
2023-03-25T01:12:36.495Z,6.78
2023-03-25T01:15:03.133Z,5.78
2023-03-25T01:17:29.730Z,2.92
2023-03-25T01:19:56.304Z,7.53
2023-03-25T01:22:22.826Z,5.43
2023-03-25T01:24:49.267Z,4.75
2023-03-25T01:27:15.999Z,8.55
2023-03-25T01:29:42.418Z,3.85
2023-03-25T01:32:08.942Z,4.80
2023-03-25T01:34:38.506Z,3.53
2023-03-25T01:37:05.066Z,3.55
2023-03-25T01:39:31.476Z,5.85
2023-03-25T01:41:58.074Z,6.50
2023-03-25T01:44:24.473Z,4.15
2023-03-25T01:46:53.951Z,4.07
2023-03-25T01:49:30.138Z,3.45
2023-03-25T01:52:03.288Z,5.07
2023-03-25T01:54:30.820Z,5.40
2023-03-25T01:56:57.950Z,6.28
2023-03-25T01:59:28.108Z,5.50
2023-03-25T02:01:58.310Z,5.90
2023-03-25T02:04:42.659Z,6.03
2023-03-25T02:07:10.187Z,4.93
2023-03-25T02:09:37.866Z,4.30
2023-03-25T02:12:04.776Z,2.90
2023-03-25T02:14:34.831Z,3.40
2023-03-25T02:17:16.407Z,4.45
2023-03-25T02:20:09.214Z,5.18
2023-03-25T02:23:03.471Z,3.33
2023-03-25T02:25:54.903Z,4.33
2023-03-25T02:28:47.375Z,3.50
2023-03-25T02:31:34.826Z,5.80
2023-03-25T02:34:35.401Z,3.00
2023-03-25T02:37:10.844Z,2.87
2023-03-25T02:39:37.222Z,6.23
2023-03-25T02:42:12.406Z,2.45
2023-03-25T02:44:56.665Z,4.97
2023-03-25T02:47:25.507Z,4.30
2023-03-25T02:50:00.896Z,5.23
2023-03-25T02:52:32.357Z,2.77
2023-03-25T02:55:04.818Z,1.77
2023-03-25T02:57:35.252Z,2.10
2023-03-25T03:00:10.546Z,1.80
2023-03-25T03:02:38.447Z,3.87
2023-03-25T03:05:22.604Z,4.23
2023-03-25T03:08:00.616Z,3.23
2023-03-25T03:10:48.066Z,4.57
2023-03-25T03:13:17.209Z,3.87
2023-03-25T03:15:56.056Z,4.47
2023-03-25T03:18:53.902Z,5.70
2023-03-25T03:21:25.857Z,5.17
2023-03-25T03:24:19.520Z,5.63
2023-03-25T03:26:53.297Z,6.47
2023-03-25T03:29:28.829Z,5.63
2023-03-25T03:32:21.024Z,3.87
2023-03-25T03:34:54.847Z,7.70
2023-03-25T03:37:35.210Z,9.50
2023-03-25T03:40:06.249Z,4.40
2023-03-25T03:42:46.954Z,6.10
2023-03-25T03:45:33.975Z,4.87
2023-03-25T03:48:07.314Z,6.13
2023-03-25T03:50:52.728Z,4.97
2023-03-25T03:53:27.729Z,4.80
2023-03-25T03:56:01.698Z,6.70
2023-03-25T03:58:42.867Z,7.10
2023-03-25T04:01:19.966Z,11.10
2023-03-25T04:03:57.948Z,3.67
2023-03-25T04:06:38.648Z,7.87
2023-03-25T04:09:27.022Z,7.27
2023-03-25T04:11:59.887Z,8.07
2023-03-25T04:14:26.653Z,6.83
2023-03-25T04:16:55.317Z,8.32
2023-03-25T04:19:21.970Z,8.90
2023-03-25T04:21:49.157Z,6.33
2023-03-25T04:24:19.804Z,10.40
2023-03-25T04:26:47.768Z,5.60
2023-03-25T04:29:14.348Z,6.53
2023-03-25T04:31:46.407Z,2.83
2023-03-25T04:34:15.000Z,6.13
2023-03-25T04:36:43.063Z,7.77
2023-03-25T04:39:11.820Z,5.15
2023-03-25T04:41:39.544Z,3.63
2023-03-25T04:44:09.046Z,6.47
2023-03-25T04:46:36.542Z,8.87
2023-03-25T04:49:06.560Z,8.23
2023-03-25T04:51:33.237Z,9.27
2023-03-25T04:53:59.867Z,9.60
2023-03-25T04:56:27.796Z,7.53
2023-03-25T04:58:54.358Z,12.90
2023-03-25T05:01:30.509Z,12.23
2023-03-25T05:04:05.048Z,17.37
2023-03-25T05:06:38.330Z,20.00
2023-03-25T05:09:06.394Z,13.70
2023-03-25T05:11:34.652Z,18.00
2023-03-25T05:14:01.169Z,16.40
2023-03-25T05:16:27.673Z,12.43
2023-03-25T05:18:54.112Z,10.07
2023-03-25T05:21:21.640Z,15.53
2023-03-25T05:23:48.094Z,15.27
2023-03-25T05:26:14.606Z,12.00
2023-03-25T05:28:42.296Z,15.73
2023-03-25T05:31:08.765Z,17.85
2023-03-25T05:33:43.348Z,14.25
2023-03-25T05:36:11.732Z,11.90
2023-03-25T05:38:41.930Z,13.43
2023-03-25T05:41:10.728Z,12.32
2023-03-25T05:43:38.213Z,7.43
2023-03-25T05:46:05.286Z,10.25
2023-03-25T05:48:32.971Z,8.55
2023-03-25T05:51:03.256Z,7.43
2023-03-25T05:53:30.964Z,12.20
2023-03-25T05:55:57.550Z,14.67
2023-03-25T05:58:25.116Z,15.10
2023-03-25T06:00:51.796Z,9.07
2023-03-25T06:03:20.848Z,8.17
2023-03-25T06:05:48.449Z,16.87
2023-03-25T06:08:17.118Z,14.27
2023-03-25T06:10:45.703Z,17.47
2023-03-25T06:13:12.186Z,12.70
2023-03-25T06:15:40.685Z,14.77
2023-03-25T06:18:07.427Z,12.40
2023-03-25T06:20:33.975Z,19.03
2023-03-25T06:23:01.893Z,16.10
2023-03-25T06:25:28.556Z,17.43
2023-03-25T06:27:56.045Z,13.43
2023-03-25T06:30:22.718Z,16.45
2023-03-25T06:32:50.621Z,19.63
2023-03-25T06:35:20.031Z,16.60
2023-03-25T06:37:51.258Z,14.25
2023-03-25T06:40:17.887Z,16.23
2023-03-25T06:42:44.447Z,17.02
2023-03-25T06:45:11.939Z,15.65
2023-03-25T06:47:39.025Z,18.48
2023-03-25T06:50:06.162Z,20.67
2023-03-25T06:52:32.598Z,16.45
2023-03-25T06:54:59.012Z,10.90
2023-03-25T06:57:25.565Z,16.23
2023-03-25T06:59:52.059Z,17.73
2023-03-25T07:02:18.548Z,20.95
2023-03-25T07:04:45.041Z,13.60
2023-03-25T07:07:11.558Z,17.30
2023-03-25T07:09:38.147Z,14.77
2023-03-25T07:12:06.425Z,11.60
2023-03-25T07:14:34.972Z,11.75
2023-03-25T07:17:01.395Z,9.82
2023-03-25T07:19:28.033Z,11.43
2023-03-25T07:21:54.473Z,15.23
2023-03-25T07:24:20.973Z,3.03
2023-03-25T07:26:47.370Z,4.00
2023-03-25T07:29:13.820Z,6.60
2023-03-25T07:31:41.597Z,2.17
2023-03-25T07:34:08.606Z,3.88
2023-03-25T07:36:35.384Z,2.90
2023-03-25T07:39:02.282Z,3.13
2023-03-25T07:41:28.688Z,2.75
2023-03-25T07:43:55.311Z,2.10
2023-03-25T07:46:21.888Z,5.90
2023-03-25T07:48:48.338Z,7.37
2023-03-25T07:51:14.795Z,3.97
2023-03-25T07:53:44.566Z,7.10
2023-03-25T07:56:11.938Z,5.37
2023-03-25T07:58:38.647Z,7.07
2023-03-25T08:01:05.693Z,7.23
2023-03-25T08:03:33.568Z,5.67
2023-03-25T08:06:01.972Z,5.77
2023-03-25T08:08:31.660Z,8.87
2023-03-25T08:10:58.792Z,8.40
2023-03-25T08:13:26.023Z,8.83
2023-03-25T08:15:53.215Z,16.53
2023-03-25T08:18:20.361Z,6.97
2023-03-25T08:20:48.954Z,7.93
2023-03-25T08:23:19.821Z,11.73
2023-03-25T08:25:50.334Z,12.05
2023-03-25T08:28:22.401Z,15.03
2023-03-25T08:30:55.657Z,8.73
2023-03-25T08:33:26.980Z,11.38
2023-03-25T08:35:53.749Z,8.75
2023-03-25T08:38:22.270Z,9.23
2023-03-25T08:40:48.745Z,12.48
2023-03-25T08:43:15.246Z,8.20
2023-03-25T08:45:41.670Z,12.02
2023-03-25T08:48:08.145Z,6.93
2023-03-25T08:50:34.619Z,8.65
2023-03-25T08:53:01.147Z,9.68
2023-03-25T08:55:27.627Z,9.40
2023-03-25T08:57:54.030Z,9.57
2023-03-25T09:00:24.367Z,5.43
2023-03-25T09:02:51.474Z,9.30
2023-03-25T09:05:19.121Z,7.13
2023-03-25T09:07:46.606Z,10.02
2023-03-25T09:10:14.155Z,9.23
2023-03-25T09:12:41.302Z,10.40
2023-03-25T09:15:08.986Z,7.28
2023-03-25T09:17:35.662Z,10.13
2023-03-25T09:20:02.098Z,9.05
2023-03-25T09:22:28.690Z,8.65
2023-03-25T09:24:55.181Z,8.85
2023-03-25T09:27:21.663Z,8.43
2023-03-25T09:29:48.047Z,8.45
2023-03-25T09:32:15.041Z,12.85
2023-03-25T09:34:41.464Z,8.32
2023-03-25T09:37:07.938Z,10.07
2023-03-25T09:39:34.437Z,13.50
2023-03-25T09:42:28.963Z,9.90
2023-03-25T09:44:58.437Z,12.02
2023-03-25T09:47:26.467Z,6.03
2023-03-25T09:50:00.773Z,11.73
2023-03-25T09:52:35.693Z,10.40
2023-03-25T09:55:08.184Z,8.02
2023-03-25T09:57:49.199Z,6.43
2023-03-25T10:00:23.361Z,13.52
2023-03-25T10:02:57.469Z,11.65
2023-03-25T10:05:36.697Z,4.88
2023-03-25T10:08:40.144Z,11.73
2023-03-25T10:11:31.762Z,8.95
2023-03-25T10:14:15.951Z,3.05
2023-03-25T10:16:48.250Z,6.78
2023-03-25T10:19:34.780Z,8.93
2023-03-25T10:22:10.677Z,4.30
2023-03-25T10:24:52.436Z,6.30
2023-03-25T10:27:34.027Z,8.98
2023-03-25T10:30:15.097Z,6.15
2023-03-25T10:32:45.180Z,11.30
2023-03-25T10:35:35.230Z,6.63
2023-03-25T10:38:19.488Z,8.52
2023-03-25T10:40:50.361Z,6.40
2023-03-25T10:43:31.935Z,7.72
2023-03-25T10:46:06.160Z,5.45
2023-03-25T10:48:33.644Z,6.35
2023-03-25T10:51:13.729Z,9.88
2023-03-25T10:53:41.856Z,7.38
2023-03-25T10:56:16.849Z,6.63
2023-03-25T10:58:47.576Z,6.13
2023-03-25T11:01:20.996Z,5.53
2023-03-25T11:03:54.475Z,4.88
2023-03-25T11:06:26.634Z,7.90
2023-03-25T11:09:24.038Z,9.48
2023-03-25T11:11:51.016Z,15.10
2023-03-25T11:14:23.381Z,5.95
2023-03-25T11:16:59.698Z,6.20
2023-03-25T11:19:55.307Z,8.25
2023-03-25T11:22:28.721Z,9.80
2023-03-25T11:25:25.705Z,9.18
2023-03-25T11:28:09.145Z,9.40
2023-03-25T11:30:35.659Z,7.07
2023-03-25T11:33:06.441Z,6.43
2023-03-25T11:35:42.425Z,6.88
2023-03-25T11:38:20.074Z,6.80
2023-03-25T11:40:55.887Z,6.07
2023-03-25T11:43:25.523Z,9.15
2023-03-25T11:45:52.656Z,7.28
2023-03-25T11:48:20.915Z,10.48
2023-03-25T11:50:55.777Z,6.90
2023-03-25T11:53:26.009Z,5.95
2023-03-25T11:55:57.580Z,5.93
2023-03-25T11:58:33.137Z,8.68
2023-03-25T12:01:19.951Z,7.43
2023-03-25T12:03:47.376Z,5.40
2023-03-25T12:06:20.589Z,6.68
2023-03-25T12:08:51.391Z,6.63
2023-03-25T12:11:30.637Z,6.25
2023-03-25T12:14:19.934Z,8.30
2023-03-25T12:16:58.899Z,5.70
2023-03-25T12:19:42.566Z,6.40
2023-03-25T12:22:17.136Z,5.30
2023-03-25T12:24:56.216Z,8.93
2023-03-25T12:27:47.996Z,4.95
2023-03-25T12:30:23.260Z,9.50
2023-03-25T12:33:18.082Z,6.53
2023-03-25T12:36:01.853Z,5.10
2023-03-25T12:38:40.166Z,8.07
2023-03-25T12:41:17.537Z,4.95
2023-03-25T12:44:04.378Z,4.65
2023-03-25T12:47:11.058Z,7.10
2023-03-25T12:49:54.956Z,10.23
2023-03-25T12:52:36.407Z,8.77
2023-03-25T12:55:23.651Z,7.45
2023-03-25T12:58:22.083Z,8.15
2023-03-25T13:01:17.489Z,5.65
2023-03-25T13:04:04.825Z,6.90
2023-03-25T13:06:39.293Z,5.50
2023-03-25T13:09:22.760Z,4.35
2023-03-25T13:12:34.385Z,8.40
2023-03-25T13:15:24.538Z,6.60
2023-03-25T13:18:00.293Z,9.88
2023-03-25T13:20:30.098Z,8.68
2023-03-25T13:23:02.096Z,4.93
2023-03-25T13:25:40.872Z,9.90
2023-03-25T13:28:13.403Z,7.20
2023-03-25T13:30:43.771Z,5.13
2023-03-25T13:33:16.059Z,9.63
2023-03-25T13:35:52.801Z,4.25
2023-03-25T13:38:33.252Z,5.38
2023-03-25T13:41:28.354Z,7.38
2023-03-25T13:44:16.873Z,4.85
2023-03-25T13:46:45.143Z,5.28
2023-03-25T13:49:17.727Z,4.90
2023-03-25T13:51:44.259Z,7.85
2023-03-25T13:54:25.184Z,7.72
2023-03-25T13:57:16.131Z,4.97
2023-03-25T14:00:01.519Z,2.20
2023-03-25T14:02:39.995Z,5.30
2023-03-25T14:05:24.879Z,4.72
2023-03-25T14:08:20.791Z,3.15
2023-03-25T14:11:11.732Z,5.55
2023-03-25T14:13:42.958Z,5.72
2023-03-25T14:16:14.469Z,5.13
2023-03-25T14:18:48.636Z,3.60
2023-03-25T14:21:22.073Z,2.97
2023-03-25T14:23:49.489Z,5.60
2023-03-25T14:26:18.751Z,3.20
2023-03-25T14:28:47.634Z,6.80
2023-03-25T14:31:14.053Z,6.93
2023-03-25T14:33:59.799Z,3.92
2023-03-25T14:36:49.543Z,6.28
2023-03-25T14:39:24.896Z,6.28
2023-03-25T14:42:01.768Z,5.00
2023-03-25T14:44:34.215Z,4.68
2023-03-25T14:47:20.743Z,4.15
2023-03-25T14:50:05.208Z,5.97
2023-03-25T14:52:45.943Z,5.28
2023-03-25T14:55:15.383Z,5.78
2023-03-25T14:57:43.717Z,5.60
2023-03-25T15:00:22.639Z,6.25
2023-03-25T15:03:01.680Z,5.97
2023-03-25T15:05:32.002Z,8.35
2023-03-25T15:08:23.001Z,4.60
2023-03-25T15:11:02.312Z,4.18
2023-03-25T15:13:33.910Z,5.70
2023-03-25T15:16:03.882Z,8.30
2023-03-25T15:18:36.827Z,8.73
2023-03-25T15:21:14.251Z,4.10
2023-03-25T15:23:44.910Z,3.60
2023-03-25T15:26:34.735Z,2.10
2023-03-25T15:29:19.626Z,2.65
2023-03-25T15:31:56.110Z,2.72
2023-03-25T15:34:34.423Z,1.45
2023-03-25T15:37:39.264Z,1.08
2023-03-25T15:40:49.711Z,0.52
2023-03-25T15:44:00.141Z,1.45
2023-03-25T15:47:04.243Z,2.10
2023-03-25T15:49:46.242Z,0.40
2023-03-25T15:52:21.400Z,0.93
2023-03-25T15:54:54.962Z,0.52
2023-03-25T15:57:26.673Z,1.00
2023-03-25T16:00:11.802Z,1.00
2023-03-25T16:03:02.241Z,1.55
2023-03-25T16:05:31.115Z,2.67
2023-03-25T16:08:01.130Z,2.20
2023-03-25T16:10:36.162Z,2.05
2023-03-25T16:13:05.468Z,2.45
2023-03-25T16:15:35.369Z,2.35
2023-03-25T16:18:06.173Z,1.58
2023-03-25T16:20:35.185Z,3.75
2023-03-25T16:23:03.649Z,1.38
2023-03-25T16:25:35.608Z,5.93
2023-03-25T16:28:03.464Z,4.03
2023-03-25T16:30:33.034Z,1.65
2023-03-25T16:33:10.384Z,3.42
2023-03-25T16:35:42.785Z,3.75
2023-03-25T16:38:17.177Z,2.35
2023-03-25T16:40:46.733Z,3.53
2023-03-25T16:43:24.495Z,3.53
2023-03-25T16:45:52.769Z,2.90
2023-03-25T16:48:27.198Z,3.35
2023-03-25T16:50:55.683Z,2.65
2023-03-25T16:53:23.971Z,4.38
2023-03-25T16:55:58.170Z,2.60
2023-03-25T16:58:27.872Z,2.67
2023-03-25T17:00:56.013Z,3.28
2023-03-25T17:03:46.373Z,7.88
2023-03-25T17:06:26.182Z,3.22
2023-03-25T17:08:54.991Z,3.42
2023-03-25T17:11:23.897Z,4.88
2023-03-25T17:13:54.704Z,4.28
2023-03-25T17:16:22.638Z,2.25
2023-03-25T17:18:53.046Z,6.47
2023-03-25T17:21:30.176Z,3.63
2023-03-25T17:24:00.495Z,6.43
2023-03-25T17:26:33.080Z,1.83
2023-03-25T17:29:06.182Z,2.60
2023-03-25T17:31:38.838Z,8.30
2023-03-25T17:34:19.278Z,2.08
2023-03-25T17:36:57.755Z,2.30
2023-03-25T17:39:30.085Z,0.68
2023-03-25T17:42:01.384Z,2.13
2023-03-25T17:44:39.594Z,2.45
2023-03-25T17:47:07.895Z,1.25
2023-03-25T17:49:34.707Z,0.88
2023-03-25T17:52:01.262Z,2.58
2023-03-25T17:54:28.248Z,3.20
2023-03-25T17:56:54.666Z,3.70
2023-03-25T17:59:23.562Z,1.25
2023-03-25T18:01:50.403Z,2.97
2023-03-25T18:04:19.815Z,2.13
2023-03-25T18:06:46.489Z,2.15
2023-03-25T18:09:20.354Z,1.13
2023-03-25T18:11:49.177Z,2.70
2023-03-25T18:14:15.988Z,3.40
2023-03-25T18:16:42.880Z,0.63
2023-03-25T18:19:14.972Z,2.35
2023-03-25T18:21:41.717Z,3.03
2023-03-25T18:24:08.361Z,4.53
2023-03-25T18:26:35.321Z,2.35
2023-03-25T18:29:02.265Z,4.00
2023-03-25T18:31:28.851Z,3.03
2023-03-25T18:33:56.258Z,4.35
2023-03-25T18:36:22.805Z,2.65
2023-03-25T18:38:49.338Z,3.35
2023-03-25T18:41:16.108Z,4.28
2023-03-25T18:43:43.198Z,3.67
2023-03-25T18:46:14.183Z,3.67
2023-03-25T18:48:41.179Z,4.30
2023-03-25T18:51:11.858Z,4.38
2023-03-25T18:53:38.644Z,3.40
2023-03-25T18:56:05.904Z,4.07
2023-03-25T18:58:33.900Z,6.10
2023-03-25T19:01:02.236Z,3.97
2023-03-25T19:03:38.215Z,5.78
2023-03-25T19:06:14.422Z,4.30
2023-03-25T19:08:43.428Z,6.65
2023-03-25T19:11:19.962Z,5.10
2023-03-25T19:13:48.340Z,8.43
2023-03-25T19:16:14.911Z,6.03
2023-03-25T19:18:41.350Z,3.45
2023-03-25T19:21:08.165Z,4.70
2023-03-25T19:23:36.030Z,8.20
2023-03-25T19:26:02.530Z,9.07
2023-03-25T19:28:29.129Z,8.73
2023-03-25T19:30:59.994Z,4.18
2023-03-25T19:33:26.951Z,8.05
2023-03-25T19:35:54.796Z,9.90
2023-03-25T19:38:25.515Z,7.60
2023-03-25T19:41:02.273Z,6.28
2023-03-25T19:43:29.260Z,6.18
2023-03-25T19:45:56.716Z,6.25
2023-03-25T19:48:23.137Z,8.18
2023-03-25T19:50:52.413Z,5.75
2023-03-25T19:53:18.936Z,6.93
2023-03-25T19:55:45.667Z,10.65
2023-03-25T19:58:12.452Z,7.53
2023-03-25T20:00:39.478Z,10.52
2023-03-25T20:03:06.327Z,7.80
2023-03-25T20:05:33.750Z,10.05
2023-03-25T20:08:00.304Z,11.32
2023-03-25T20:10:30.192Z,8.23
2023-03-25T20:12:57.635Z,8.70
2023-03-25T20:15:25.634Z,10.07
2023-03-25T20:17:54.396Z,14.27
2023-03-25T20:20:21.600Z,9.52
2023-03-25T20:22:48.609Z,6.60
2023-03-25T20:25:16.274Z,9.52
2023-03-25T20:27:43.921Z,6.43
2023-03-25T20:30:14.644Z,9.25
2023-03-25T20:32:43.035Z,10.25
2023-03-25T20:35:12.970Z,9.93
2023-03-25T20:37:43.139Z,13.63
2023-03-25T20:40:13.168Z,11.82
2023-03-25T20:42:41.369Z,8.90
2023-03-25T20:45:09.394Z,12.32
2023-03-25T20:47:36.026Z,9.68
2023-03-25T20:50:03.664Z,10.88
2023-03-25T20:52:30.226Z,12.10
2023-03-25T20:54:56.874Z,10.25
2023-03-25T20:57:23.729Z,11.25
2023-03-25T20:59:52.826Z,17.10
2023-03-25T21:02:21.342Z,12.90
2023-03-25T21:04:48.183Z,10.77
2023-03-25T21:07:19.205Z,11.73
2023-03-25T21:09:47.706Z,11.40
2023-03-25T21:12:14.512Z,13.52
2023-03-25T21:14:41.316Z,14.47
2023-03-25T21:17:07.794Z,11.43
2023-03-25T21:19:34.398Z,16.02
2023-03-25T21:22:00.854Z,15.83
2023-03-25T21:24:27.328Z,11.48
2023-03-25T21:26:53.761Z,14.80
2023-03-25T21:29:20.923Z,18.40
2023-03-25T21:31:47.652Z,14.82
2023-03-25T21:34:15.744Z,13.07
2023-03-25T21:36:43.259Z,12.73
2023-03-25T21:39:10.154Z,16.30
2023-03-25T21:41:36.644Z,15.07
2023-03-25T21:44:05.048Z,16.73
2023-03-25T21:46:33.372Z,12.70
2023-03-25T21:49:01.347Z,13.43
2023-03-25T21:51:32.403Z,15.57
2023-03-25T21:54:00.343Z,15.70
2023-03-25T21:56:30.366Z,14.17
2023-03-25T21:58:57.981Z,24.75
2023-03-25T22:01:29.546Z,19.63
2023-03-25T22:03:58.200Z,12.87
2023-03-25T22:06:30.706Z,15.57
2023-03-25T22:08:57.437Z,13.37
2023-03-25T22:11:27.010Z,19.00
2023-03-25T22:13:53.485Z,18.07
2023-03-25T22:16:21.145Z,14.23
2023-03-25T22:18:48.632Z,13.50
2023-03-25T22:21:20.868Z,15.57
2023-03-25T22:23:49.172Z,16.93
2023-03-25T22:26:17.200Z,16.47
2023-03-25T22:28:45.460Z,17.13
2023-03-25T22:31:15.572Z,12.63
2023-03-25T22:33:42.424Z,13.67
2023-03-25T22:36:14.466Z,15.40
2023-03-25T22:38:44.426Z,13.73
2023-03-25T22:41:13.083Z,13.27
2023-03-25T22:43:40.339Z,11.47
2023-03-25T22:46:08.178Z,16.37
2023-03-25T22:48:35.825Z,15.83
2023-03-25T22:51:02.260Z,20.60
2023-03-25T22:53:28.782Z,14.97
2023-03-25T22:55:56.927Z,18.27
2023-03-25T22:58:26.590Z,15.80
2023-03-25T23:00:54.785Z,15.13
2023-03-25T23:03:22.445Z,14.80
2023-03-25T23:06:03.992Z,14.53
2023-03-25T23:08:33.138Z,10.37
2023-03-25T23:11:07.019Z,10.90
2023-03-25T23:13:34.673Z,16.20
2023-03-25T23:16:06.825Z,16.17
2023-03-25T23:18:34.351Z,18.07
2023-03-25T23:21:01.110Z,14.83
2023-03-25T23:23:28.812Z,12.40
2023-03-25T23:26:14.394Z,11.43
2023-03-25T23:28:41.890Z,16.47
2023-03-25T23:31:14.223Z,19.73
2023-03-25T23:33:41.610Z,16.00
2023-03-25T23:36:09.778Z,15.17
2023-03-25T23:38:36.960Z,14.17
2023-03-25T23:41:09.301Z,16.03
2023-03-25T23:43:36.694Z,19.23
2023-03-25T23:46:07.548Z,14.57
2023-03-25T23:48:40.558Z,11.07
2023-03-25T23:51:10.443Z,17.93
2023-03-25T23:53:39.335Z,22.23
2023-03-25T23:56:07.285Z,10.27
2023-03-25T23:58:34.008Z,12.83
